createdAt,value
2022-11-30T00:00:26.453Z,27.50
2022-11-30T00:02:56.183Z,25.50
2022-11-30T00:05:22.929Z,29.00
2022-11-30T00:07:49.853Z,29.75
2022-11-30T00:10:16.721Z,30.50
2022-11-30T00:12:43.444Z,30.00
2022-11-30T00:15:12.993Z,29.00
2022-11-30T00:17:40.231Z,29.33
2022-11-30T00:20:08.638Z,28.00
2022-11-30T00:22:35.178Z,24.75
2022-11-30T00:25:03.313Z,28.00
2022-11-30T00:27:30.498Z,26.50
2022-11-30T00:29:57.077Z,25.00
2022-11-30T00:32:24.046Z,24.00
2022-11-30T00:34:50.459Z,25.60
2022-11-30T00:37:17.030Z,25.00
2022-11-30T00:39:43.470Z,23.50
2022-11-30T00:42:10.023Z,23.40
2022-11-30T00:44:36.476Z,21.25
2022-11-30T00:47:02.933Z,23.00
2022-11-30T00:49:29.416Z,24.00
2022-11-30T00:51:55.889Z,28.00
2022-11-30T00:54:22.283Z,27.50
2022-11-30T00:56:48.704Z,27.00
2022-11-30T00:59:15.168Z,28.50
2022-11-30T01:01:41.735Z,26.00
2022-11-30T01:04:08.498Z,26.25
2022-11-30T01:06:34.896Z,23.00
2022-11-30T01:09:02.985Z,21.00
2022-11-30T01:11:30.512Z,21.60
2022-11-30T01:14:00.333Z,21.00
2022-11-30T01:16:28.370Z,21.00
2022-11-30T01:18:54.862Z,22.00
2022-11-30T01:21:22.516Z,21.00
2022-11-30T01:23:49.320Z,21.00
2022-11-30T01:26:16.134Z,24.75
2022-11-30T01:28:45.783Z,19.40
2022-11-30T01:31:15.371Z,19.60
2022-11-30T01:33:43.394Z,17.75
2022-11-30T01:36:14.313Z,18.80
2022-11-30T01:38:46.254Z,17.40
2022-11-30T01:41:14.151Z,18.00
2022-11-30T01:43:45.555Z,17.00
2022-11-30T01:46:30.786Z,17.00
2022-11-30T01:49:13.603Z,15.60
2022-11-30T01:51:39.994Z,17.00
2022-11-30T01:54:08.631Z,19.40
2022-11-30T01:56:35.497Z,17.20
2022-11-30T01:59:01.991Z,17.00
2022-11-30T02:01:28.571Z,16.80
2022-11-30T02:03:55.008Z,17.80
2022-11-30T02:06:22.491Z,14.00
2022-11-30T02:08:48.956Z,12.00
2022-11-30T02:11:15.837Z,13.00
2022-11-30T02:13:59.806Z,12.40
2022-11-30T02:16:31.521Z,13.50
2022-11-30T02:19:03.734Z,10.20
2022-11-30T02:21:32.935Z,13.00
2022-11-30T02:23:59.368Z,13.00
2022-11-30T02:26:25.861Z,11.50
2022-11-30T02:29:02.423Z,12.40
2022-11-30T02:31:31.559Z,14.20
2022-11-30T02:33:59.469Z,12.25
2022-11-30T02:36:27.155Z,13.00
2022-11-30T02:38:53.819Z,12.00
2022-11-30T02:41:20.256Z,12.20
2022-11-30T02:43:46.939Z,11.50
2022-11-30T02:46:13.370Z,13.00
2022-11-30T02:48:46.539Z,12.00
2022-11-30T02:51:15.882Z,13.00
2022-11-30T02:53:42.472Z,13.00
2022-11-30T02:56:08.922Z,14.00
2022-11-30T02:58:35.786Z,16.00
2022-11-30T03:01:02.224Z,18.80
2022-11-30T03:03:28.638Z,19.80
2022-11-30T03:05:55.090Z,19.60
2022-11-30T03:08:21.560Z,18.60
2022-11-30T03:10:48.039Z,18.25
2022-11-30T03:13:14.505Z,17.00
2022-11-30T03:15:40.957Z,17.20
2022-11-30T03:18:07.368Z,15.00
2022-11-30T03:20:33.824Z,18.00
2022-11-30T03:23:03.320Z,15.60
2022-11-30T03:25:29.739Z,18.00
2022-11-30T03:27:56.204Z,17.40
2022-11-30T03:30:22.645Z,17.00
2022-11-30T03:32:49.084Z,16.50
2022-11-30T03:35:15.602Z,15.00
2022-11-30T03:37:42.004Z,16.00
2022-11-30T03:40:08.702Z,16.40
2022-11-30T03:42:35.421Z,16.00
2022-11-30T03:45:01.896Z,14.00
2022-11-30T03:47:28.287Z,13.00
2022-11-30T03:49:54.672Z,12.60
2022-11-30T03:52:21.101Z,12.00
2022-11-30T03:54:47.722Z,11.20
2022-11-30T03:57:14.328Z,11.00
2022-11-30T03:59:40.744Z,11.00
2022-11-30T04:02:07.199Z,13.00
2022-11-30T04:04:33.687Z,11.00
2022-11-30T04:07:00.143Z,11.60
2022-11-30T04:09:26.548Z,11.00
2022-11-30T04:11:52.956Z,12.00
2022-11-30T04:14:19.377Z,11.25
2022-11-30T04:16:45.844Z,11.25
2022-11-30T04:19:12.430Z,12.00
2022-11-30T04:21:38.863Z,14.00
2022-11-30T04:24:05.484Z,12.00
2022-11-30T04:26:31.943Z,12.00
2022-11-30T04:29:01.158Z,13.60
2022-11-30T04:31:29.741Z,12.50
2022-11-30T04:33:56.238Z,12.00
2022-11-30T04:36:22.749Z,11.00
2022-11-30T04:38:49.420Z,12.75
2022-11-30T04:41:15.870Z,14.00
2022-11-30T04:43:42.403Z,12.00
2022-11-30T04:46:08.997Z,13.00
2022-11-30T04:48:35.485Z,13.75
2022-11-30T04:51:06.355Z,15.00
2022-11-30T04:53:33.513Z,17.25
2022-11-30T04:56:04.036Z,15.00
2022-11-30T04:58:30.471Z,15.00
2022-11-30T05:00:56.879Z,16.25
2022-11-30T05:03:23.327Z,16.00
2022-11-30T05:05:49.861Z,17.25
2022-11-30T05:08:16.272Z,15.25
2022-11-30T05:10:42.725Z,15.75
2022-11-30T05:13:09.243Z,15.00
2022-11-30T05:15:35.691Z,12.00
2022-11-30T05:18:02.327Z,13.00
2022-11-30T05:20:29.001Z,13.00
2022-11-30T05:22:55.516Z,12.60
2022-11-30T05:25:22.045Z,12.00
2022-11-30T05:27:48.473Z,13.25
2022-11-30T05:30:15.025Z,14.50
2022-11-30T05:32:41.664Z,12.00
2022-11-30T05:35:08.659Z,12.40
2022-11-30T05:37:35.107Z,11.00
2022-11-30T05:40:01.524Z,11.60
2022-11-30T05:42:28.319Z,13.00
2022-11-30T05:44:54.749Z,10.60
2022-11-30T05:47:21.199Z,10.40
2022-11-30T05:49:47.621Z,11.00
2022-11-30T05:52:14.062Z,11.75
2022-11-30T05:54:40.536Z,17.00
2022-11-30T05:57:06.969Z,25.20
2022-11-30T05:59:33.417Z,36.00
2022-11-30T06:01:59.939Z,43.40
2022-11-30T06:04:26.566Z,32.00
2022-11-30T06:06:55.721Z,17.00
2022-11-30T06:09:22.634Z,16.00
2022-11-30T06:11:49.109Z,21.75
2022-11-30T06:14:15.530Z,24.00
2022-11-30T06:16:41.948Z,15.75
2022-11-30T06:19:08.455Z,40.60
2022-11-30T06:21:34.905Z,53.00
2022-11-30T06:24:01.372Z,40.75
2022-11-30T06:26:27.840Z,34.00
2022-11-30T06:28:54.278Z,25.00
2022-11-30T06:31:20.744Z,25.00
2022-11-30T06:33:47.223Z,27.00
2022-11-30T06:36:13.646Z,24.80
2022-11-30T06:38:40.078Z,22.00
2022-11-30T06:41:07.716Z,29.00
2022-11-30T06:43:35.661Z,24.75
2022-11-30T06:46:04.184Z,22.00
2022-11-30T06:48:30.761Z,24.25
2022-11-30T06:50:57.385Z,23.20
2022-11-30T06:53:23.878Z,15.00
2022-11-30T06:55:50.275Z,15.20
2022-11-30T06:58:16.695Z,15.00
2022-11-30T07:00:43.265Z,14.40
2022-11-30T07:03:10.289Z,21.00
2022-11-30T07:05:41.131Z,29.80
2022-11-30T07:08:07.557Z,28.50
2022-11-30T07:10:33.957Z,24.60
2022-11-30T07:13:00.732Z,17.40
2022-11-30T07:15:27.129Z,17.00
2022-11-30T07:17:53.560Z,18.50
2022-11-30T07:20:20.120Z,21.00
2022-11-30T07:22:46.624Z,35.00
2022-11-30T07:25:31.832Z,22.00
2022-11-30T07:27:58.247Z,20.80
2022-11-30T07:30:24.684Z,17.00
2022-11-30T07:32:51.128Z,13.40
2022-11-30T07:35:17.585Z,15.00
2022-11-30T07:37:43.994Z,15.00
2022-11-30T07:40:10.598Z,13.00
2022-11-30T07:42:37.013Z,17.00
2022-11-30T07:45:03.539Z,16.00
2022-11-30T07:47:30.120Z,10.75
2022-11-30T07:49:56.543Z,11.50
2022-11-30T07:52:23.114Z,13.00
2022-11-30T07:54:49.844Z,12.60
2022-11-30T07:57:16.596Z,12.00
2022-11-30T07:59:42.986Z,12.50
2022-11-30T08:02:10.489Z,14.00
2022-11-30T08:04:37.024Z,13.20
2022-11-30T08:07:03.504Z,14.20
2022-11-30T08:09:30.442Z,15.00
2022-11-30T08:11:56.845Z,13.00
2022-11-30T08:14:23.286Z,14.00
2022-11-30T08:16:49.767Z,13.00
2022-11-30T08:19:16.269Z,13.00
2022-11-30T08:21:42.664Z,11.40
2022-11-30T08:24:11.288Z,17.40
2022-11-30T08:26:37.808Z,16.40
2022-11-30T08:29:04.428Z,15.00
2022-11-30T08:31:32.133Z,13.00
2022-11-30T08:34:02.681Z,11.80
2022-11-30T08:36:29.602Z,11.00
2022-11-30T08:38:57.652Z,9.60
2022-11-30T08:41:24.233Z,9.00
2022-11-30T08:43:51.310Z,8.75
2022-11-30T08:46:49.669Z,10.00
2022-11-30T08:49:22.603Z,11.00
2022-11-30T08:54:39.089Z,10.60
2022-11-30T08:57:05.554Z,12.00
2022-11-30T08:59:32.119Z,14.25
2022-11-30T09:01:58.582Z,11.25
2022-11-30T09:04:25.106Z,11.00
2022-11-30T09:06:51.514Z,12.00
2022-11-30T09:09:17.926Z,16.00
2022-11-30T09:11:44.446Z,16.50
2022-11-30T09:14:10.980Z,9.00
2022-11-30T09:16:37.506Z,8.50
2022-11-30T09:19:03.992Z,8.00
2022-11-30T09:21:30.662Z,8.00
2022-11-30T09:23:57.184Z,6.40
2022-11-30T09:26:25.369Z,13.40
2022-11-30T09:28:52.812Z,7.00
2022-11-30T09:31:23.711Z,6.50
2022-11-30T09:33:50.548Z,9.40
2022-11-30T09:36:18.434Z,8.00
2022-11-30T09:38:45.478Z,7.50
2022-11-30T09:41:14.871Z,8.20
2022-11-30T09:43:51.722Z,3.50
2022-11-30T09:46:20.885Z,9.00
2022-11-30T09:48:47.317Z,12.00
2022-11-30T09:51:19.418Z,9.00
2022-11-30T09:53:51.492Z,10.00
2022-11-30T09:56:24.473Z,11.33
2022-11-30T09:58:54.101Z,4.00
2022-11-30T10:01:21.440Z,4.00
2022-11-30T10:03:48.473Z,8.00
2022-11-30T10:06:19.166Z,10.00
2022-11-30T10:08:51.478Z,9.20
2022-11-30T10:11:17.855Z,6.00
2022-11-30T10:13:44.371Z,7.00
2022-11-30T10:16:10.922Z,6.00
2022-11-30T10:18:56.193Z,5.60
2022-11-30T10:21:41.294Z,5.00
2022-11-30T10:24:26.493Z,4.00
2022-11-30T10:27:05.900Z,4.40
2022-11-30T10:29:35.596Z,5.00
2022-11-30T10:32:10.236Z,5.80
2022-11-30T10:34:36.667Z,6.00
2022-11-30T10:37:29.350Z,6.00
2022-11-30T10:40:01.779Z,5.00
2022-11-30T10:42:28.175Z,7.50
2022-11-30T10:45:00.340Z,5.25
2022-11-30T10:47:28.584Z,4.20
2022-11-30T10:49:55.229Z,4.60
2022-11-30T10:52:30.580Z,3.00
2022-11-30T10:55:02.450Z,3.00
2022-11-30T10:57:31.932Z,3.80
2022-11-30T11:00:00.272Z,5.40
2022-11-30T11:02:46.345Z,3.25
2022-11-30T11:05:15.399Z,3.00
2022-11-30T11:07:46.715Z,4.00
2022-11-30T11:10:15.685Z,4.00
2022-11-30T11:12:47.054Z,5.00
2022-11-30T11:15:18.418Z,3.20
2022-11-30T11:17:44.926Z,5.00
2022-11-30T11:20:31.271Z,6.00
2022-11-30T11:22:57.837Z,5.00
2022-11-30T11:25:37.861Z,5.00
2022-11-30T11:28:12.433Z,5.00
2022-11-30T11:30:39.194Z,6.00
2022-11-30T11:33:14.474Z,4.00
2022-11-30T11:35:49.563Z,5.00
2022-11-30T11:38:23.390Z,7.00
2022-11-30T11:41:06.182Z,6.00
2022-11-30T11:43:34.551Z,7.50
2022-11-30T11:46:03.087Z,6.00
2022-11-30T11:48:32.524Z,6.00
2022-11-30T11:51:07.225Z,5.00
2022-11-30T11:53:46.283Z,5.00
2022-11-30T11:56:22.656Z,3.00
2022-11-30T11:59:07.710Z,3.50
2022-11-30T12:01:49.904Z,8.80
2022-11-30T12:04:19.187Z,2.00
2022-11-30T12:06:47.572Z,3.00
2022-11-30T12:09:17.047Z,9.60
2022-11-30T12:11:44.976Z,2.00
2022-11-30T12:14:12.584Z,16.25
2022-11-30T12:16:48.077Z,8.25
2022-11-30T12:19:21.700Z,3.50
2022-11-30T12:21:54.262Z,6.00
2022-11-30T12:24:39.407Z,4.00
2022-11-30T12:27:05.783Z,18.75
2022-11-30T12:29:41.658Z,6.00
2022-11-30T12:32:31.397Z,7.00
2022-11-30T12:35:23.909Z,3.50
2022-11-30T12:37:50.282Z,2.00
2022-11-30T12:40:16.667Z,3.00
2022-11-30T12:42:46.752Z,3.60
2022-11-30T12:45:28.123Z,2.40
2022-11-30T12:48:05.492Z,3.00
2022-11-30T12:50:31.862Z,3.00
2022-11-30T12:53:07.509Z,2.75
2022-11-30T12:55:52.749Z,2.75
2022-11-30T12:58:38.550Z,5.00
2022-11-30T13:01:21.615Z,3.80
2022-11-30T13:04:11.438Z,4.00
2022-11-30T13:06:40.254Z,4.00
2022-11-30T13:09:11.420Z,2.20
2022-11-30T13:11:39.564Z,3.00
2022-11-30T13:14:18.983Z,3.00
2022-11-30T13:16:46.469Z,3.75
2022-11-30T13:19:26.012Z,3.00
2022-11-30T13:21:55.593Z,2.25
2022-11-30T13:24:26.470Z,3.00
2022-11-30T13:26:55.949Z,10.20
2022-11-30T13:29:22.953Z,23.00
2022-11-30T13:31:55.867Z,9.00
2022-11-30T13:34:23.840Z,5.00
2022-11-30T13:36:50.453Z,5.00
2022-11-30T13:39:20.525Z,4.00
2022-11-30T13:41:51.531Z,5.60
2022-11-30T13:44:25.730Z,3.60
2022-11-30T13:46:53.287Z,7.00
2022-11-30T13:49:27.407Z,11.75
2022-11-30T13:52:20.546Z,5.00
2022-11-30T13:54:45.426Z,8.00
2022-11-30T13:57:24.412Z,16.00
2022-11-30T13:59:55.167Z,9.67
2022-11-30T14:02:34.080Z,15.60
2022-11-30T14:05:18.799Z,7.00
2022-11-30T14:07:46.385Z,6.00
2022-11-30T14:10:31.465Z,12.00
2022-11-30T14:12:59.759Z,7.40
2022-11-30T14:15:34.183Z,5.00
2022-11-30T14:18:02.836Z,5.40
2022-11-30T14:20:37.571Z,10.00
2022-11-30T14:23:11.590Z,7.00
2022-11-30T14:25:39.921Z,11.75
2022-11-30T14:28:06.766Z,6.00
2022-11-30T14:30:34.369Z,10.00
2022-11-30T14:33:06.786Z,19.75
2022-11-30T14:35:33.453Z,5.00
2022-11-30T14:38:00.414Z,5.80
2022-11-30T14:40:30.325Z,10.80
2022-11-30T14:42:58.197Z,8.00
2022-11-30T14:45:26.540Z,5.50
2022-11-30T14:48:16.913Z,7.00
2022-11-30T14:50:54.956Z,15.00
2022-11-30T14:53:40.042Z,17.00
2022-11-30T14:56:15.644Z,12.75
2022-11-30T14:58:45.120Z,14.20
2022-11-30T15:01:19.703Z,16.00
2022-11-30T15:03:47.935Z,11.50
2022-11-30T15:06:15.618Z,12.00
2022-11-30T15:08:43.346Z,10.20
2022-11-30T15:11:11.416Z,11.00
2022-11-30T15:13:39.631Z,12.80
2022-11-30T15:16:09.533Z,12.00
2022-11-30T15:18:38.998Z,10.60
2022-11-30T15:21:13.167Z,12.75
2022-11-30T15:23:39.615Z,17.40
2022-11-30T15:26:11.522Z,11.60
2022-11-30T15:28:40.287Z,12.00
2022-11-30T15:31:09.056Z,19.20
2022-11-30T15:33:43.840Z,15.00
2022-11-30T15:36:32.549Z,19.25
2022-11-30T15:38:57.053Z,13.25
2022-11-30T15:41:24.563Z,12.00
2022-11-30T15:43:55.495Z,13.00
2022-11-30T15:46:34.537Z,16.50
2022-11-30T15:49:24.472Z,16.00
2022-11-30T15:52:16.147Z,16.25
2022-11-30T15:54:43.800Z,19.00
2022-11-30T15:57:10.221Z,17.50
2022-11-30T15:59:36.715Z,20.00
2022-11-30T16:02:08.962Z,20.00
2022-11-30T16:04:54.282Z,20.00
2022-11-30T16:07:20.832Z,18.25
2022-11-30T16:09:47.628Z,22.00
2022-11-30T16:12:19.953Z,23.00
2022-11-30T16:14:46.394Z,20.00
2022-11-30T16:17:12.843Z,22.00
2022-11-30T16:19:39.336Z,22.00
2022-11-30T16:22:05.775Z,20.00
2022-11-30T16:24:32.225Z,19.00
2022-11-30T16:26:58.655Z,20.00
2022-11-30T16:29:25.059Z,20.00
2022-11-30T16:31:51.535Z,20.00
2022-11-30T16:34:18.033Z,22.25
2022-11-30T16:36:44.454Z,22.00
2022-11-30T16:39:12.128Z,20.50
2022-11-30T16:41:38.621Z,27.00
2022-11-30T16:44:08.747Z,22.00
2022-11-30T16:46:36.341Z,22.25
2022-11-30T16:49:02.753Z,31.00
2022-11-30T16:51:31.538Z,30.00
2022-11-30T16:53:58.048Z,20.50
2022-11-30T16:56:25.555Z,24.75
2022-11-30T16:58:52.200Z,21.00
2022-11-30T17:01:38.862Z,22.00
2022-11-30T17:04:13.338Z,23.00
2022-11-30T17:06:39.755Z,26.40
2022-11-30T17:09:06.285Z,24.50
2022-11-30T17:11:34.235Z,29.75
2022-11-30T17:14:00.904Z,32.40
2022-11-30T17:16:27.415Z,30.50
2022-11-30T17:18:53.925Z,31.60
2022-11-30T17:21:24.065Z,28.00
2022-11-30T17:23:50.520Z,28.40
2022-11-30T17:26:16.984Z,32.67
2022-11-30T17:28:43.717Z,28.00
2022-11-30T17:31:10.680Z,27.40
2022-11-30T17:33:37.332Z,31.75
2022-11-30T17:36:05.570Z,29.00
2022-11-30T17:38:32.632Z,31.00
2022-11-30T17:40:59.034Z,29.00
2022-11-30T17:43:25.486Z,42.25
2022-11-30T17:45:52.135Z,45.00
2022-11-30T17:48:18.697Z,50.00
2022-11-30T17:50:45.143Z,39.25
2022-11-30T17:53:16.779Z,30.00
2022-11-30T17:55:44.962Z,52.00
2022-11-30T17:58:11.356Z,32.00
2022-11-30T18:00:37.799Z,25.00
2022-11-30T18:03:04.328Z,28.00
2022-11-30T18:05:31.591Z,26.80
2022-11-30T18:07:58.053Z,34.00
2022-11-30T18:10:24.588Z,32.60
2022-11-30T18:12:51.028Z,35.00
2022-11-30T18:15:17.694Z,29.00
2022-11-30T18:17:44.178Z,31.00
2022-11-30T18:20:10.998Z,30.00
2022-11-30T18:22:37.457Z,26.33
2022-11-30T18:25:03.955Z,30.00
2022-11-30T18:27:30.462Z,32.00
2022-11-30T18:29:57.338Z,30.00
2022-11-30T18:32:23.755Z,30.00
2022-11-30T18:34:50.428Z,34.75
2022-11-30T18:37:17.072Z,44.00
2022-11-30T18:39:43.477Z,49.20
2022-11-30T18:42:09.975Z,54.00
2022-11-30T18:44:36.401Z,45.00
2022-11-30T18:47:02.810Z,42.00
2022-11-30T18:49:29.246Z,36.00
2022-11-30T18:51:55.668Z,41.00
2022-11-30T18:54:22.512Z,33.50
2022-11-30T18:56:49.028Z,37.00
2022-11-30T18:59:15.618Z,39.75
2022-11-30T19:01:42.378Z,42.75
2022-11-30T19:04:10.275Z,40.00
2022-11-30T19:06:37.278Z,33.00
2022-11-30T19:09:10.674Z,34.00
2022-11-30T19:11:37.994Z,32.00
2022-11-30T19:14:04.800Z,32.00
2022-11-30T19:16:31.826Z,31.00
2022-11-30T19:19:02.278Z,31.00
2022-11-30T19:21:28.929Z,34.00
2022-11-30T19:23:56.477Z,35.00
2022-11-30T19:26:22.969Z,36.00
2022-11-30T19:28:49.393Z,50.75
2022-11-30T19:31:17.350Z,73.50
2022-11-30T19:33:45.066Z,85.60
2022-11-30T19:36:16.451Z,87.20
2022-11-30T19:38:42.953Z,58.75
2022-11-30T19:41:10.362Z,40.00
2022-11-30T19:43:36.981Z,38.80
2022-11-30T19:46:08.485Z,34.60
2022-11-30T19:48:35.288Z,32.80
2022-11-30T19:51:12.099Z,35.25
2022-11-30T19:53:42.227Z,36.00
2022-11-30T19:56:10.322Z,46.80
2022-11-30T19:58:36.739Z,49.80
2022-11-30T20:01:05.062Z,56.50
2022-11-30T20:03:35.160Z,57.00
2022-11-30T20:06:02.502Z,53.80
2022-11-30T20:08:29.116Z,54.00
2022-11-30T20:10:55.578Z,43.80
2022-11-30T20:13:22.080Z,61.50
2022-11-30T20:15:48.749Z,52.50
2022-11-30T20:18:15.268Z,52.00
2022-11-30T20:20:41.726Z,42.00
2022-11-30T20:23:08.144Z,39.00
2022-11-30T20:25:34.764Z,36.00
2022-11-30T20:28:01.211Z,35.75
2022-11-30T20:30:27.692Z,36.50
2022-11-30T20:32:54.274Z,36.00
2022-11-30T20:35:20.868Z,33.50
2022-11-30T20:37:47.270Z,31.00
2022-11-30T20:40:13.854Z,27.00
2022-11-30T20:42:40.306Z,28.00
2022-11-30T20:45:06.927Z,27.00
2022-11-30T20:47:36.189Z,27.00
2022-11-30T20:50:03.043Z,28.60
2022-11-30T20:52:29.531Z,29.00
2022-11-30T20:54:56.240Z,25.00
2022-11-30T20:57:23.113Z,25.00
2022-11-30T20:59:49.618Z,25.00
2022-11-30T21:02:16.288Z,26.75
2022-11-30T21:04:42.834Z,27.00
2022-11-30T21:07:09.257Z,28.00
2022-11-30T21:09:35.670Z,28.00
2022-11-30T21:12:02.117Z,27.00
2022-11-30T21:14:28.582Z,27.25
2022-11-30T21:16:55.157Z,25.00
2022-11-30T21:19:21.606Z,23.00
2022-11-30T21:21:48.051Z,24.40
2022-11-30T21:24:14.474Z,23.00
2022-11-30T21:26:42.694Z,23.00
2022-11-30T21:29:16.494Z,24.00
2022-11-30T21:31:43.331Z,24.00
2022-11-30T21:34:09.891Z,24.50
2022-11-30T21:36:36.381Z,24.00
2022-11-30T21:39:06.612Z,24.00
2022-11-30T21:41:37.746Z,24.60
2022-11-30T21:44:04.263Z,25.40
2022-11-30T21:46:30.950Z,27.00
2022-11-30T21:48:57.570Z,24.00
2022-11-30T21:51:25.139Z,24.00
2022-11-30T21:53:52.922Z,23.00
2022-11-30T21:56:20.735Z,24.00
2022-11-30T21:58:47.782Z,23.00
2022-11-30T22:01:18.609Z,24.00
2022-11-30T22:03:45.507Z,24.20
2022-11-30T22:06:16.116Z,23.67
2022-11-30T22:08:42.596Z,23.00
2022-11-30T22:11:13.264Z,23.00
2022-11-30T22:13:40.184Z,23.00
2022-11-30T22:16:13.911Z,24.00
2022-11-30T22:18:40.844Z,22.40
2022-11-30T22:21:09.077Z,23.20
2022-11-30T22:23:36.738Z,24.00
2022-11-30T22:26:16.598Z,23.80
2022-11-30T22:28:44.300Z,23.00
2022-11-30T22:31:12.585Z,24.00
2022-11-30T22:33:39.769Z,25.25
2022-11-30T22:36:07.236Z,27.00
2022-11-30T22:38:34.368Z,24.75
2022-11-30T22:41:11.527Z,28.00
2022-11-30T22:43:38.192Z,25.75
2022-11-30T22:46:09.305Z,23.25
2022-11-30T22:48:35.802Z,23.00
2022-11-30T22:51:03.261Z,23.00
2022-11-30T22:53:29.775Z,22.00
2022-11-30T22:56:00.888Z,23.50
2022-11-30T22:58:27.474Z,23.00
2022-11-30T23:00:53.989Z,22.20
2022-11-30T23:03:20.564Z,22.00
2022-11-30T23:05:47.089Z,22.67
2022-11-30T23:08:13.562Z,23.00
2022-11-30T23:10:40.053Z,21.75
2022-11-30T23:13:06.479Z,22.00
2022-11-30T23:15:33.015Z,23.00
2022-11-30T23:17:59.495Z,21.00
2022-11-30T23:20:25.924Z,23.00
2022-11-30T23:22:52.317Z,21.00
2022-11-30T23:25:18.749Z,22.00
2022-11-30T23:27:45.198Z,23.00
2022-11-30T23:30:11.957Z,21.00
2022-11-30T23:32:38.368Z,21.50
2022-11-30T23:35:04.915Z,22.75
2022-11-30T23:37:31.344Z,23.00
2022-11-30T23:39:57.773Z,23.00
2022-11-30T23:42:24.195Z,23.00
2022-11-30T23:45:00.871Z,22.50
2022-11-30T23:47:27.403Z,22.00
2022-11-30T23:49:53.834Z,22.00
2022-11-30T23:52:20.282Z,23.00
2022-11-30T23:54:46.680Z,21.00
2022-11-30T23:57:13.072Z,21.00
2022-11-30T23:59:39.500Z,21.00
